Terminal Aerodrome Forecast
Issued by NWS Cleveland, OH

Home | Current Version | Previous Version | Text Only | Print | Product List | Glossary Off
Versions: 1 2 3 4 5 6 7 8 9 10 11 12 13 14 15 16 17 18 19 20 21 22 23 24 25 26 27 28

000
FTUS41 KCLE 081600 AAB
TAFCAK
TAF AMD
KCAK 081600Z 0816/0912 20006KT P6SM SCT015 OVC035
      TEMPO 0816/0818 3SM -RASN BR SCT008 OVC012
     FM081800 26008KT 3SM -SN BR SCT003 OVC008
      TEMPO 0820/0824 3/4SM -SN BR OVC003
     FM090000 27005KT 4SM BR OVC012
     FM090400 28004KT 2SM -SN BR OVC007=

USA.gov is the U.S. government's official web portal to all federal, state and local government web resources and services.